sensor_id;sensor_type;location;lat;lon;timestamp;P1;durP1;ratioP1;P2;durP2;ratioP2
31638;SDS011;18248;51.522;7.020;2023-02-07T00:00:22;50.85;;;20.98;;
31638;SDS011;18248;51.522;7.020;2023-02-07T00:03:21;58.50;;;22.42;;
31638;SDS011;18248;51.522;7.020;2023-02-07T00:06:22;72.13;;;25.70;;
31638;SDS011;18248;51.522;7.020;2023-02-07T00:09:22;60.70;;;23.38;;
31638;SDS011;18248;51.522;7.020;2023-02-07T00:12:22;48.47;;;21.08;;
31638;SDS011;18248;51.522;7.020;2023-02-07T00:15:20;57.35;;;22.65;;
31638;SDS011;18248;51.522;7.020;2023-02-07T00:18:19;63.70;;;25.63;;
31638;SDS011;18248;51.522;7.020;2023-02-07T00:21:19;63.17;;;26.70;;
31638;SDS011;18248;51.522;7.020;2023-02-07T00:24:20;80.90;;;29.75;;
31638;SDS011;18248;51.522;7.020;2023-02-07T00:27:18;85.60;;;28.15;;
31638;SDS011;18248;51.522;7.020;2023-02-07T00:30:17;77.55;;;29.02;;
31638;SDS011;18248;51.522;7.020;2023-02-07T00:33:15;72.45;;;27.95;;
31638;SDS011;18248;51.522;7.020;2023-02-07T00:36:17;90.85;;;35.08;;
31638;SDS011;18248;51.522;7.020;2023-02-07T00:39:18;114.55;;;38.67;;
31638;SDS011;18248;51.522;7.020;2023-02-07T00:42:16;95.85;;;35.95;;
31638;SDS011;18248;51.522;7.020;2023-02-07T00:45:15;79.70;;;31.25;;
31638;SDS011;18248;51.522;7.020;2023-02-07T00:48:13;124.75;;;41.92;;
31638;SDS011;18248;51.522;7.020;2023-02-07T00:51:12;140.15;;;44.75;;
31638;SDS011;18248;51.522;7.020;2023-02-07T00:54:11;104.78;;;34.90;;
31638;SDS011;18248;51.522;7.020;2023-02-07T00:57:10;118.93;;;40.63;;
31638;SDS011;18248;51.522;7.020;2023-02-07T01:00:10;113.45;;;39.53;;
31638;SDS011;18248;51.522;7.020;2023-02-07T01:03:10;97.35;;;35.97;;
31638;SDS011;18248;51.522;7.020;2023-02-07T01:06:10;108.97;;;39.78;;
31638;SDS011;18248;51.522;7.020;2023-02-07T01:09:08;105.95;;;40.10;;
31638;SDS011;18248;51.522;7.020;2023-02-07T01:12:07;94.95;;;34.60;;
31638;SDS011;18248;51.522;7.020;2023-02-07T01:15:06;87.65;;;32.92;;
31638;SDS011;18248;51.522;7.020;2023-02-07T01:18:05;95.57;;;35.65;;
31638;SDS011;18248;51.522;7.020;2023-02-07T01:21:12;93.43;;;35.67;;
31638;SDS011;18248;51.522;7.020;2023-02-07T01:24:12;86.88;;;33.17;;
31638;SDS011;18248;51.522;7.020;2023-02-07T01:27:10;86.35;;;34.03;;
31638;SDS011;18248;51.522;7.020;2023-02-07T01:30:09;94.43;;;36.03;;
31638;SDS011;18248;51.522;7.020;2023-02-07T01:33:08;115.68;;;45.55;;
31638;SDS011;18248;51.522;7.020;2023-02-07T01:36:08;108.90;;;42.42;;
31638;SDS011;18248;51.522;7.020;2023-02-07T01:39:08;92.97;;;35.45;;
31638;SDS011;18248;51.522;7.020;2023-02-07T01:42:10;86.15;;;34.80;;
31638;SDS011;18248;51.522;7.020;2023-02-07T01:48:33;94.47;;;35.58;;
31638;SDS011;18248;51.522;7.020;2023-02-07T01:51:33;83.85;;;33.75;;
31638;SDS011;18248;51.522;7.020;2023-02-07T01:54:34;80.00;;;33.75;;
31638;SDS011;18248;51.522;7.020;2023-02-07T01:57:34;87.13;;;35.90;;
31638;SDS011;18248;51.522;7.020;2023-02-07T02:00:33;113.50;;;40.85;;
31638;SDS011;18248;51.522;7.020;2023-02-07T02:03:33;106.03;;;40.70;;
31638;SDS011;18248;51.522;7.020;2023-02-07T02:06:34;110.88;;;40.58;;
31638;SDS011;18248;51.522;7.020;2023-02-07T02:09:33;113.88;;;42.60;;
31638;SDS011;18248;51.522;7.020;2023-02-07T02:16:01;121.28;;;46.63;;
31638;SDS011;18248;51.522;7.020;2023-02-07T02:42:10;99.85;;;39.22;;
31638;SDS011;18248;51.522;7.020;2023-02-07T02:45:31;135.10;;;47.42;;
31638;SDS011;18248;51.522;7.020;2023-02-07T02:48:37;118.82;;;42.90;;
31638;SDS011;18248;51.522;7.020;2023-02-07T02:51:38;117.60;;;43.50;;
31638;SDS011;18248;51.522;7.020;2023-02-07T02:54:37;137.07;;;50.40;;
31638;SDS011;18248;51.522;7.020;2023-02-07T03:01:05;114.43;;;41.33;;
31638;SDS011;18248;51.522;7.020;2023-02-07T03:07:34;87.85;;;37.10;;
31638;SDS011;18248;51.522;7.020;2023-02-07T03:10:54;94.97;;;38.40;;
31638;SDS011;18248;51.522;7.020;2023-02-07T03:17:13;135.05;;;40.33;;
31638;SDS011;18248;51.522;7.020;2023-02-07T03:20:37;194.60;;;39.15;;
31638;SDS011;18248;51.522;7.020;2023-02-07T03:23:43;116.10;;;34.72;;
31638;SDS011;18248;51.522;7.020;2023-02-07T03:26:44;104.85;;;33.53;;
31638;SDS011;18248;51.522;7.020;2023-02-07T03:29:45;161.70;;;36.42;;
31638;SDS011;18248;51.522;7.020;2023-02-07T03:32:48;293.00;;;39.72;;
31638;SDS011;18248;51.522;7.020;2023-02-07T03:35:52;121.57;;;32.60;;
31638;SDS011;18248;51.522;7.020;2023-02-07T03:38:57;124.70;;;33.22;;
31638;SDS011;18248;51.522;7.020;2023-02-07T03:41:57;372.17;;;43.80;;
31638;SDS011;18248;51.522;7.020;2023-02-07T03:44:58;134.02;;;37.20;;
31638;SDS011;18248;51.522;7.020;2023-02-07T03:47:58;188.52;;;35.53;;
31638;SDS011;18248;51.522;7.020;2023-02-07T03:50:57;243.10;;;38.10;;
31638;SDS011;18248;51.522;7.020;2023-02-07T03:53:56;153.55;;;31.15;;
31638;SDS011;18248;51.522;7.020;2023-02-07T03:56:54;193.60;;;38.05;;
31638;SDS011;18248;51.522;7.020;2023-02-07T03:59:53;269.15;;;37.80;;
31638;SDS011;18248;51.522;7.020;2023-02-07T04:02:51;435.27;;;41.53;;
31638;SDS011;18248;51.522;7.020;2023-02-07T04:05:50;100.63;;;33.42;;
31638;SDS011;18248;51.522;7.020;2023-02-07T04:08:48;114.47;;;37.10;;
31638;SDS011;18248;51.522;7.020;2023-02-07T04:11:47;113.10;;;35.55;;
31638;SDS011;18248;51.522;7.020;2023-02-07T04:14:46;125.03;;;39.38;;
31638;SDS011;18248;51.522;7.020;2023-02-07T04:17:45;135.50;;;35.70;;
31638;SDS011;18248;51.522;7.020;2023-02-07T04:20:43;118.28;;;36.42;;
31638;SDS011;18248;51.522;7.020;2023-02-07T04:23:42;281.67;;;36.80;;
31638;SDS011;18248;51.522;7.020;2023-02-07T04:26:40;144.80;;;36.75;;
31638;SDS011;18248;51.522;7.020;2023-02-07T04:29:39;379.23;;;40.17;;
31638;SDS011;18248;51.522;7.020;2023-02-07T04:32:37;358.50;;;41.65;;
31638;SDS011;18248;51.522;7.020;2023-02-07T04:35:36;424.48;;;46.28;;
31638;SDS011;18248;51.522;7.020;2023-02-07T04:38:35;578.67;;;45.05;;
31638;SDS011;18248;51.522;7.020;2023-02-07T04:41:34;172.38;;;36.95;;
31638;SDS011;18248;51.522;7.020;2023-02-07T04:44:32;143.95;;;31.95;;
31638;SDS011;18248;51.522;7.020;2023-02-07T04:47:31;167.20;;;31.27;;
31638;SDS011;18248;51.522;7.020;2023-02-07T04:50:30;212.57;;;33.88;;
31638;SDS011;18248;51.522;7.020;2023-02-07T04:53:29;128.48;;;32.38;;
31638;SDS011;18248;51.522;7.020;2023-02-07T04:56:27;120.47;;;29.42;;
31638;SDS011;18248;51.522;7.020;2023-02-07T04:59:26;233.00;;;38.00;;
31638;SDS011;18248;51.522;7.020;2023-02-07T05:02:24;137.93;;;31.90;;
31638;SDS011;18248;51.522;7.020;2023-02-07T05:05:23;223.65;;;36.15;;
31638;SDS011;18248;51.522;7.020;2023-02-07T05:08:22;74.30;;;27.42;;
31638;SDS011;18248;51.522;7.020;2023-02-07T05:11:21;78.88;;;27.08;;
31638;SDS011;18248;51.522;7.020;2023-02-07T05:14:19;203.68;;;35.30;;
31638;SDS011;18248;51.522;7.020;2023-02-07T05:17:18;191.48;;;33.72;;
31638;SDS011;18248;51.522;7.020;2023-02-07T05:20:17;174.32;;;31.40;;
31638;SDS011;18248;51.522;7.020;2023-02-07T05:23:16;147.45;;;28.10;;
31638;SDS011;18248;51.522;7.020;2023-02-07T05:26:14;171.05;;;29.92;;
31638;SDS011;18248;51.522;7.020;2023-02-07T05:29:14;261.30;;;31.25;;
31638;SDS011;18248;51.522;7.020;2023-02-07T05:32:13;152.85;;;27.25;;
31638;SDS011;18248;51.522;7.020;2023-02-07T05:35:42;179.35;;;29.95;;
31638;SDS011;18248;51.522;7.020;2023-02-07T05:38:41;259.02;;;31.45;;
31638;SDS011;18248;51.522;7.020;2023-02-07T05:41:40;103.28;;;27.13;;
31638;SDS011;18248;51.522;7.020;2023-02-07T05:44:38;54.28;;;24.05;;
31638;SDS011;18248;51.522;7.020;2023-02-07T05:47:37;61.55;;;24.65;;
31638;SDS011;18248;51.522;7.020;2023-02-07T05:50:35;92.93;;;25.65;;
31638;SDS011;18248;51.522;7.020;2023-02-07T05:53:35;71.70;;;23.65;;
31638;SDS011;18248;51.522;7.020;2023-02-07T05:56:34;67.88;;;25.35;;
31638;SDS011;18248;51.522;7.020;2023-02-07T05:59:32;92.80;;;26.17;;
31638;SDS011;18248;51.522;7.020;2023-02-07T06:02:31;53.42;;;23.50;;
31638;SDS011;18248;51.522;7.020;2023-02-07T06:05:29;49.90;;;21.60;;
31638;SDS011;18248;51.522;7.020;2023-02-07T06:08:30;53.95;;;23.30;;
31638;SDS011;18248;51.522;7.020;2023-02-07T06:11:28;47.72;;;22.42;;
31638;SDS011;18248;51.522;7.020;2023-02-07T06:14:27;45.88;;;21.38;;
31638;SDS011;18248;51.522;7.020;2023-02-07T06:17:25;45.85;;;21.15;;
31638;SDS011;18248;51.522;7.020;2023-02-07T06:20:24;50.45;;;24.88;;
31638;SDS011;18248;51.522;7.020;2023-02-07T06:23:23;74.13;;;31.45;;
31638;SDS011;18248;51.522;7.020;2023-02-07T06:26:21;49.70;;;23.50;;
31638;SDS011;18248;51.522;7.020;2023-02-07T06:29:20;50.88;;;24.48;;
31638;SDS011;18248;51.522;7.020;2023-02-07T06:32:18;47.83;;;22.60;;
31638;SDS011;18248;51.522;7.020;2023-02-07T06:35:17;48.03;;;22.55;;
31638;SDS011;18248;51.522;7.020;2023-02-07T06:38:16;55.42;;;25.15;;
31638;SDS011;18248;51.522;7.020;2023-02-07T06:41:15;52.47;;;23.80;;
31638;SDS011;18248;51.522;7.020;2023-02-07T06:44:14;57.90;;;26.23;;
31638;SDS011;18248;51.522;7.020;2023-02-07T06:47:12;43.63;;;21.77;;
31638;SDS011;18248;51.522;7.020;2023-02-07T06:50:11;53.85;;;24.90;;
31638;SDS011;18248;51.522;7.020;2023-02-07T06:53:09;46.08;;;22.00;;
31638;SDS011;18248;51.522;7.020;2023-02-07T06:56:08;58.38;;;26.15;;
31638;SDS011;18248;51.522;7.020;2023-02-07T06:59:07;63.90;;;30.38;;
31638;SDS011;18248;51.522;7.020;2023-02-07T07:02:05;48.10;;;23.02;;
31638;SDS011;18248;51.522;7.020;2023-02-07T07:05:05;43.38;;;22.45;;
31638;SDS011;18248;51.522;7.020;2023-02-07T07:08:05;46.60;;;21.60;;
31638;SDS011;18248;51.522;7.020;2023-02-07T07:11:03;47.60;;;23.88;;
31638;SDS011;18248;51.522;7.020;2023-02-07T07:14:03;49.40;;;23.85;;
31638;SDS011;18248;51.522;7.020;2023-02-07T07:17:02;58.17;;;25.63;;
31638;SDS011;18248;51.522;7.020;2023-02-07T07:20:00;46.30;;;22.08;;
31638;SDS011;18248;51.522;7.020;2023-02-07T07:22:59;45.92;;;22.55;;
31638;SDS011;18248;51.522;7.020;2023-02-07T07:25:57;41.90;;;19.65;;
31638;SDS011;18248;51.522;7.020;2023-02-07T07:28:56;54.45;;;23.90;;
31638;SDS011;18248;51.522;7.020;2023-02-07T07:31:57;59.67;;;22.65;;
31638;SDS011;18248;51.522;7.020;2023-02-07T07:34:55;41.30;;;20.63;;
31638;SDS011;18248;51.522;7.020;2023-02-07T07:37:54;44.72;;;20.90;;
31638;SDS011;18248;51.522;7.020;2023-02-07T07:40:52;41.83;;;19.65;;
31638;SDS011;18248;51.522;7.020;2023-02-07T07:43:51;38.50;;;18.35;;
31638;SDS011;18248;51.522;7.020;2023-02-07T07:46:50;43.80;;;22.02;;
31638;SDS011;18248;51.522;7.020;2023-02-07T07:49:49;42.17;;;19.30;;
31638;SDS011;18248;51.522;7.020;2023-02-07T07:52:49;41.60;;;19.75;;
31638;SDS011;18248;51.522;7.020;2023-02-07T07:55:50;37.97;;;19.35;;
31638;SDS011;18248;51.522;7.020;2023-02-07T07:58:51;41.28;;;20.45;;
31638;SDS011;18248;51.522;7.020;2023-02-07T08:01:50;44.15;;;21.67;;
31638;SDS011;18248;51.522;7.020;2023-02-07T08:04:49;36.17;;;19.35;;
31638;SDS011;18248;51.522;7.020;2023-02-07T08:07:48;47.92;;;22.13;;
31638;SDS011;18248;51.522;7.020;2023-02-07T08:10:47;39.38;;;19.20;;
31638;SDS011;18248;51.522;7.020;2023-02-07T08:13:46;41.30;;;18.08;;
31638;SDS011;18248;51.522;7.020;2023-02-07T08:16:45;36.88;;;17.98;;
31638;SDS011;18248;51.522;7.020;2023-02-07T08:19:44;38.55;;;19.45;;
31638;SDS011;18248;51.522;7.020;2023-02-07T08:22:42;37.10;;;19.38;;
31638;SDS011;18248;51.522;7.020;2023-02-07T08:25:41;45.63;;;21.20;;
31638;SDS011;18248;51.522;7.020;2023-02-07T08:28:40;35.17;;;18.55;;
31638;SDS011;18248;51.522;7.020;2023-02-07T08:31:39;36.30;;;18.42;;
31638;SDS011;18248;51.522;7.020;2023-02-07T08:34:38;36.38;;;17.63;;
31638;SDS011;18248;51.522;7.020;2023-02-07T08:37:37;45.00;;;21.40;;
31638;SDS011;18248;51.522;7.020;2023-02-07T08:40:38;38.50;;;18.85;;
31638;SDS011;18248;51.522;7.020;2023-02-07T08:43:36;38.72;;;18.77;;
31638;SDS011;18248;51.522;7.020;2023-02-07T08:46:35;47.60;;;23.38;;
31638;SDS011;18248;51.522;7.020;2023-02-07T08:49:33;41.80;;;20.77;;
31638;SDS011;18248;51.522;7.020;2023-02-07T08:52:32;39.25;;;18.73;;
31638;SDS011;18248;51.522;7.020;2023-02-07T08:55:30;34.83;;;18.23;;
31638;SDS011;18248;51.522;7.020;2023-02-07T08:58:29;39.80;;;19.23;;
31638;SDS011;18248;51.522;7.020;2023-02-07T09:01:27;41.30;;;18.20;;
31638;SDS011;18248;51.522;7.020;2023-02-07T09:04:26;37.33;;;18.70;;
31638;SDS011;18248;51.522;7.020;2023-02-07T09:07:25;38.30;;;17.55;;
31638;SDS011;18248;51.522;7.020;2023-02-07T09:10:24;37.65;;;17.77;;
31638;SDS011;18248;51.522;7.020;2023-02-07T09:13:23;33.08;;;18.17;;
31638;SDS011;18248;51.522;7.020;2023-02-07T09:16:22;37.25;;;18.52;;
31638;SDS011;18248;51.522;7.020;2023-02-07T09:19:21;48.53;;;21.83;;
31638;SDS011;18248;51.522;7.020;2023-02-07T09:22:19;39.97;;;19.42;;
31638;SDS011;18248;51.522;7.020;2023-02-07T09:25:18;36.85;;;18.85;;
31638;SDS011;18248;51.522;7.020;2023-02-07T09:28:17;32.22;;;17.05;;
31638;SDS011;18248;51.522;7.020;2023-02-07T09:31:16;37.55;;;18.85;;
31638;SDS011;18248;51.522;7.020;2023-02-07T09:34:15;31.00;;;17.67;;
31638;SDS011;18248;51.522;7.020;2023-02-07T09:37:14;45.78;;;24.75;;
31638;SDS011;18248;51.522;7.020;2023-02-07T09:40:16;41.47;;;21.67;;
31638;SDS011;18248;51.522;7.020;2023-02-07T09:43:24;33.50;;;18.13;;
31638;SDS011;18248;51.522;7.020;2023-02-07T09:50:12;26.88;;;13.77;;
31638;SDS011;18248;51.522;7.020;2023-02-07T09:56:39;24.05;;;11.57;;
31638;SDS011;18248;51.522;7.020;2023-02-07T09:59:47;18.02;;;9.88;;
31638;SDS011;18248;51.522;7.020;2023-02-07T10:03:00;12.65;;;8.07;;
31638;SDS011;18248;51.522;7.020;2023-02-07T10:06:11;16.90;;;9.52;;
31638;SDS011;18248;51.522;7.020;2023-02-07T10:09:18;15.23;;;7.53;;
31638;SDS011;18248;51.522;7.020;2023-02-07T10:19:37;14.07;;;6.95;;
31638;SDS011;18248;51.522;7.020;2023-02-07T10:26:09;19.05;;;6.93;;
31638;SDS011;18248;51.522;7.020;2023-02-07T10:29:42;15.15;;;7.55;;
31638;SDS011;18248;51.522;7.020;2023-02-07T10:33:08;12.88;;;7.40;;
31638;SDS011;18248;51.522;7.020;2023-02-07T10:36:20;12.23;;;6.75;;
31638;SDS011;18248;51.522;7.020;2023-02-07T10:42:30;15.05;;;7.07;;
31638;SDS011;18248;51.522;7.020;2023-02-07T10:45:33;15.85;;;7.63;;
31638;SDS011;18248;51.522;7.020;2023-02-07T10:48:33;13.05;;;6.70;;
31638;SDS011;18248;51.522;7.020;2023-02-07T10:54:51;9.50;;;6.18;;
31638;SDS011;18248;51.522;7.020;2023-02-07T10:57:53;12.25;;;7.32;;
31638;SDS011;18248;51.522;7.020;2023-02-07T11:00:52;11.43;;;6.50;;
31638;SDS011;18248;51.522;7.020;2023-02-07T11:03:52;11.05;;;6.90;;
31638;SDS011;18248;51.522;7.020;2023-02-07T11:06:58;14.30;;;6.55;;
31638;SDS011;18248;51.522;7.020;2023-02-07T11:13:19;12.00;;;6.45;;
31638;SDS011;18248;51.522;7.020;2023-02-07T11:16:19;13.90;;;6.82;;
31638;SDS011;18248;51.522;7.020;2023-02-07T11:19:22;12.02;;;6.60;;
31638;SDS011;18248;51.522;7.020;2023-02-07T11:22:22;13.65;;;6.57;;
31638;SDS011;18248;51.522;7.020;2023-02-07T11:25:32;13.13;;;6.13;;
31638;SDS011;18248;51.522;7.020;2023-02-07T11:28:38;7.82;;;5.05;;
31638;SDS011;18248;51.522;7.020;2023-02-07T11:31:36;12.85;;;6.50;;
31638;SDS011;18248;51.522;7.020;2023-02-07T11:38:12;13.15;;;6.45;;
31638;SDS011;18248;51.522;7.020;2023-02-07T11:41:18;9.60;;;6.50;;
31638;SDS011;18248;51.522;7.020;2023-02-07T11:44:18;10.10;;;6.57;;
31638;SDS011;18248;51.522;7.020;2023-02-07T11:47:23;12.55;;;6.22;;
31638;SDS011;18248;51.522;7.020;2023-02-07T11:50:31;9.30;;;5.27;;
31638;SDS011;18248;51.522;7.020;2023-02-07T11:56:51;8.77;;;4.97;;
31638;SDS011;18248;51.522;7.020;2023-02-07T12:03:28;10.63;;;5.15;;
31638;SDS011;18248;51.522;7.020;2023-02-07T12:06:41;8.15;;;5.18;;
31638;SDS011;18248;51.522;7.020;2023-02-07T12:09:50;12.48;;;6.00;;
31638;SDS011;18248;51.522;7.020;2023-02-07T12:13:40;13.02;;;5.68;;
31638;SDS011;18248;51.522;7.020;2023-02-07T12:16:25;12.37;;;5.80;;
31638;SDS011;18248;51.522;7.020;2023-02-07T12:19:32;11.03;;;5.07;;
31638;SDS011;18248;51.522;7.020;2023-02-07T12:22:34;8.18;;;5.78;;
31638;SDS011;18248;51.522;7.020;2023-02-07T12:25:39;9.82;;;5.82;;
31638;SDS011;18248;51.522;7.020;2023-02-07T12:39:14;8.20;;;5.38;;
31638;SDS011;18248;51.522;7.020;2023-02-07T12:42:32;8.30;;;5.53;;
31638;SDS011;18248;51.522;7.020;2023-02-07T12:45:53;10.32;;;5.60;;
31638;SDS011;18248;51.522;7.020;2023-02-07T13:02:31;8.32;;;6.07;;
31638;SDS011;18248;51.522;7.020;2023-02-07T13:06:00;12.10;;;6.03;;
31638;SDS011;18248;51.522;7.020;2023-02-07T13:09:38;11.25;;;6.03;;
31638;SDS011;18248;51.522;7.020;2023-02-07T13:16:56;8.18;;;5.95;;
31638;SDS011;18248;51.522;7.020;2023-02-07T13:26:20;13.52;;;5.45;;
31638;SDS011;18248;51.522;7.020;2023-02-07T13:29:18;10.45;;;5.97;;
31638;SDS011;18248;51.522;7.020;2023-02-07T13:32:22;7.15;;;4.97;;
31638;SDS011;18248;51.522;7.020;2023-02-07T13:35:24;8.93;;;5.60;;
31638;SDS011;18248;51.522;7.020;2023-02-07T13:38:38;6.93;;;4.80;;
31638;SDS011;18248;51.522;7.020;2023-02-07T13:42:02;12.20;;;5.78;;
31638;SDS011;18248;51.522;7.020;2023-02-07T13:48:45;7.28;;;5.38;;
31638;SDS011;18248;51.522;7.020;2023-02-07T13:52:00;8.20;;;5.55;;
31638;SDS011;18248;51.522;7.020;2023-02-07T14:01:50;10.10;;;4.95;;
31638;SDS011;18248;51.522;7.020;2023-02-07T14:04:55;12.13;;;5.25;;
31638;SDS011;18248;51.522;7.020;2023-02-07T14:08:05;8.73;;;5.55;;
31638;SDS011;18248;51.522;7.020;2023-02-07T14:11:30;10.20;;;4.93;;
31638;SDS011;18248;51.522;7.020;2023-02-07T14:27:23;4.95;;;4.05;;
31638;SDS011;18248;51.522;7.020;2023-02-07T14:34:10;8.30;;;5.43;;
31638;SDS011;18248;51.522;7.020;2023-02-07T14:37:20;8.05;;;4.85;;
31638;SDS011;18248;51.522;7.020;2023-02-07T14:40:35;9.82;;;5.38;;
31638;SDS011;18248;51.522;7.020;2023-02-07T14:46:52;7.88;;;4.97;;
31638;SDS011;18248;51.522;7.020;2023-02-07T14:49:54;10.95;;;5.05;;
31638;SDS011;18248;51.522;7.020;2023-02-07T14:52:57;12.07;;;5.47;;
31638;SDS011;18248;51.522;7.020;2023-02-07T14:55:59;11.93;;;5.40;;
31638;SDS011;18248;51.522;7.020;2023-02-07T14:59:01;9.75;;;5.68;;
31638;SDS011;18248;51.522;7.020;2023-02-07T15:02:26;10.13;;;4.72;;
31638;SDS011;18248;51.522;7.020;2023-02-07T15:05:33;8.45;;;5.38;;
31638;SDS011;18248;51.522;7.020;2023-02-07T15:08:33;8.65;;;5.53;;
31638;SDS011;18248;51.522;7.020;2023-02-07T15:11:32;8.75;;;5.72;;
31638;SDS011;18248;51.522;7.020;2023-02-07T15:14:31;10.77;;;6.72;;
31638;SDS011;18248;51.522;7.020;2023-02-07T15:17:31;8.90;;;5.68;;
31638;SDS011;18248;51.522;7.020;2023-02-07T15:20:32;8.48;;;5.53;;
31638;SDS011;18248;51.522;7.020;2023-02-07T15:23:32;13.55;;;6.13;;
31638;SDS011;18248;51.522;7.020;2023-02-07T15:26:31;10.63;;;6.03;;
31638;SDS011;18248;51.522;7.020;2023-02-07T15:29:32;8.13;;;5.10;;
31638;SDS011;18248;51.522;7.020;2023-02-07T15:32:40;10.98;;;5.47;;
31638;SDS011;18248;51.522;7.020;2023-02-07T15:35:43;10.18;;;5.90;;
31638;SDS011;18248;51.522;7.020;2023-02-07T15:38:41;9.57;;;5.93;;
31638;SDS011;18248;51.522;7.020;2023-02-07T15:41:40;8.32;;;5.43;;
31638;SDS011;18248;51.522;7.020;2023-02-07T15:44:48;12.50;;;5.60;;
31638;SDS011;18248;51.522;7.020;2023-02-07T15:47:54;9.65;;;5.43;;
31638;SDS011;18248;51.522;7.020;2023-02-07T15:50:54;13.88;;;6.47;;
31638;SDS011;18248;51.522;7.020;2023-02-07T15:53:57;9.80;;;5.80;;
31638;SDS011;18248;51.522;7.020;2023-02-07T15:56:58;9.32;;;6.03;;
31638;SDS011;18248;51.522;7.020;2023-02-07T16:00:17;9.88;;;6.18;;
31638;SDS011;18248;51.522;7.020;2023-02-07T16:03:20;11.20;;;6.15;;
31638;SDS011;18248;51.522;7.020;2023-02-07T16:06:21;10.57;;;6.65;;
31638;SDS011;18248;51.522;7.020;2023-02-07T16:09:40;10.30;;;5.60;;
31638;SDS011;18248;51.522;7.020;2023-02-07T16:12:46;13.07;;;5.75;;
31638;SDS011;18248;51.522;7.020;2023-02-07T16:15:51;13.52;;;6.03;;
31638;SDS011;18248;51.522;7.020;2023-02-07T16:19:07;9.82;;;5.70;;
31638;SDS011;18248;51.522;7.020;2023-02-07T16:22:20;10.48;;;5.68;;
31638;SDS011;18248;51.522;7.020;2023-02-07T16:25:28;10.07;;;6.10;;
31638;SDS011;18248;51.522;7.020;2023-02-07T16:28:29;11.82;;;6.70;;
31638;SDS011;18248;51.522;7.020;2023-02-07T16:31:29;10.10;;;5.75;;
31638;SDS011;18248;51.522;7.020;2023-02-07T16:34:28;15.10;;;6.47;;
31638;SDS011;18248;51.522;7.020;2023-02-07T16:37:27;12.45;;;6.93;;
31638;SDS011;18248;51.522;7.020;2023-02-07T16:40:25;12.25;;;6.65;;
31638;SDS011;18248;51.522;7.020;2023-02-07T16:43:37;13.18;;;6.93;;
31638;SDS011;18248;51.522;7.020;2023-02-07T16:46:37;14.77;;;5.90;;
31638;SDS011;18248;51.522;7.020;2023-02-07T16:49:42;11.30;;;6.05;;
31638;SDS011;18248;51.522;7.020;2023-02-07T16:52:41;15.82;;;6.18;;
31638;SDS011;18248;51.522;7.020;2023-02-07T16:55:40;9.10;;;6.32;;
31638;SDS011;18248;51.522;7.020;2023-02-07T16:58:38;16.42;;;6.75;;
31638;SDS011;18248;51.522;7.020;2023-02-07T17:01:37;15.65;;;6.45;;
31638;SDS011;18248;51.522;7.020;2023-02-07T17:04:36;13.32;;;6.82;;
31638;SDS011;18248;51.522;7.020;2023-02-07T17:07:36;13.30;;;7.35;;
31638;SDS011;18248;51.522;7.020;2023-02-07T17:10:38;14.00;;;6.78;;
31638;SDS011;18248;51.522;7.020;2023-02-07T17:13:38;13.43;;;7.30;;
31638;SDS011;18248;51.522;7.020;2023-02-07T17:16:37;11.05;;;6.93;;
31638;SDS011;18248;51.522;7.020;2023-02-07T17:19:35;11.55;;;7.38;;
31638;SDS011;18248;51.522;7.020;2023-02-07T17:22:35;12.80;;;7.80;;
31638;SDS011;18248;51.522;7.020;2023-02-07T17:25:34;14.75;;;8.02;;
31638;SDS011;18248;51.522;7.020;2023-02-07T17:28:33;16.90;;;7.22;;
31638;SDS011;18248;51.522;7.020;2023-02-07T17:31:31;15.93;;;8.60;;
31638;SDS011;18248;51.522;7.020;2023-02-07T17:34:30;21.33;;;9.38;;
31638;SDS011;18248;51.522;7.020;2023-02-07T17:37:29;23.40;;;11.02;;
31638;SDS011;18248;51.522;7.020;2023-02-07T17:40:32;18.92;;;8.63;;
31638;SDS011;18248;51.522;7.020;2023-02-07T17:43:35;21.20;;;9.23;;
31638;SDS011;18248;51.522;7.020;2023-02-07T17:46:33;16.45;;;8.05;;
31638;SDS011;18248;51.522;7.020;2023-02-07T17:49:32;15.70;;;8.98;;
31638;SDS011;18248;51.522;7.020;2023-02-07T17:52:31;13.65;;;7.70;;
31638;SDS011;18248;51.522;7.020;2023-02-07T17:55:30;20.00;;;9.73;;
31638;SDS011;18248;51.522;7.020;2023-02-07T17:58:29;22.20;;;9.30;;
31638;SDS011;18248;51.522;7.020;2023-02-07T18:01:28;21.25;;;9.10;;
31638;SDS011;18248;51.522;7.020;2023-02-07T18:04:27;28.10;;;13.55;;
31638;SDS011;18248;51.522;7.020;2023-02-07T18:07:26;18.88;;;10.40;;
31638;SDS011;18248;51.522;7.020;2023-02-07T18:10:26;18.50;;;9.68;;
31638;SDS011;18248;51.522;7.020;2023-02-07T18:13:29;18.10;;;9.25;;
31638;SDS011;18248;51.522;7.020;2023-02-07T18:16:29;18.88;;;8.45;;
31638;SDS011;18248;51.522;7.020;2023-02-07T18:19:28;16.67;;;8.50;;
31638;SDS011;18248;51.522;7.020;2023-02-07T18:22:29;37.53;;;16.98;;
31638;SDS011;18248;51.522;7.020;2023-02-07T18:25:28;29.88;;;14.80;;
31638;SDS011;18248;51.522;7.020;2023-02-07T18:28:27;23.00;;;12.07;;
31638;SDS011;18248;51.522;7.020;2023-02-07T18:31:25;19.60;;;10.50;;
31638;SDS011;18248;51.522;7.020;2023-02-07T18:34:24;44.75;;;21.63;;
31638;SDS011;18248;51.522;7.020;2023-02-07T18:37:22;30.17;;;17.05;;
31638;SDS011;18248;51.522;7.020;2023-02-07T18:40:23;26.58;;;14.88;;
31638;SDS011;18248;51.522;7.020;2023-02-07T18:43:21;23.90;;;13.80;;
31638;SDS011;18248;51.522;7.020;2023-02-07T18:46:20;27.48;;;14.18;;
31638;SDS011;18248;51.522;7.020;2023-02-07T18:49:18;20.90;;;11.25;;
31638;SDS011;18248;51.522;7.020;2023-02-07T18:52:17;16.90;;;9.60;;
31638;SDS011;18248;51.522;7.020;2023-02-07T18:55:16;16.40;;;9.35;;
31638;SDS011;18248;51.522;7.020;2023-02-07T18:58:14;22.75;;;11.00;;
31638;SDS011;18248;51.522;7.020;2023-02-07T19:01:14;18.75;;;10.93;;
31638;SDS011;18248;51.522;7.020;2023-02-07T19:04:16;18.10;;;9.80;;
31638;SDS011;18248;51.522;7.020;2023-02-07T19:07:15;19.58;;;10.40;;
31638;SDS011;18248;51.522;7.020;2023-02-07T19:10:13;15.70;;;8.70;;
31638;SDS011;18248;51.522;7.020;2023-02-07T19:13:13;17.23;;;9.23;;
31638;SDS011;18248;51.522;7.020;2023-02-07T19:16:21;18.30;;;10.02;;
31638;SDS011;18248;51.522;7.020;2023-02-07T19:19:24;20.98;;;9.73;;
31638;SDS011;18248;51.522;7.020;2023-02-07T19:25:26;15.43;;;8.43;;
31638;SDS011;18248;51.522;7.020;2023-02-07T19:28:24;14.90;;;7.78;;
31638;SDS011;18248;51.522;7.020;2023-02-07T19:31:23;13.88;;;7.82;;
31638;SDS011;18248;51.522;7.020;2023-02-07T19:34:25;14.48;;;8.20;;
31638;SDS011;18248;51.522;7.020;2023-02-07T19:37:24;18.30;;;9.35;;
31638;SDS011;18248;51.522;7.020;2023-02-07T19:40:23;27.77;;;15.15;;
31638;SDS011;18248;51.522;7.020;2023-02-07T19:43:21;21.23;;;11.18;;
31638;SDS011;18248;51.522;7.020;2023-02-07T19:46:21;17.35;;;10.98;;
31638;SDS011;18248;51.522;7.020;2023-02-07T19:49:20;17.73;;;10.50;;
31638;SDS011;18248;51.522;7.020;2023-02-07T19:52:19;22.42;;;11.82;;
31638;SDS011;18248;51.522;7.020;2023-02-07T19:55:20;19.70;;;11.32;;
31638;SDS011;18248;51.522;7.020;2023-02-07T19:58:18;21.67;;;10.05;;
31638;SDS011;18248;51.522;7.020;2023-02-07T20:01:18;20.35;;;9.88;;
31638;SDS011;18248;51.522;7.020;2023-02-07T20:04:16;20.02;;;10.43;;
31638;SDS011;18248;51.522;7.020;2023-02-07T20:07:15;19.38;;;10.30;;
31638;SDS011;18248;51.522;7.020;2023-02-07T20:10:14;24.25;;;10.85;;
31638;SDS011;18248;51.522;7.020;2023-02-07T20:13:13;19.60;;;9.63;;